Time;durP1;ratioP1;P1;durP2;ratioP2;P2;SDS_P1;SDS_P2;PMS_P1;PMS_P2;Temp;Humidity;BMP_temperature;BMP_pressure;BME280_temperature;BME280_humidity;BME280_pressure;Samples;Min_cycle;Max_cycle;Signal;HPM_P1;HPM_P2
2022/05/07 00:04:44;;;;;;;1999.90;999.90;;;;;;;13.47;63.82;101775.28;15789599;28;20113;-63
2022/05/07 00:12:17;;;;;;;1999.90;999.90;;;;;;;13.58;63.85;101784.22;15789985;28;20050;-62
2022/05/07 00:19:50;;;;;;;1999.90;999.90;;;;;;;13.57;63.57;101769.34;15765960;28;20050;-61
2022/05/07 00:27:24;;;;;;;1999.90;999.90;;;;;;;13.61;62.40;101777.94;15805782;28;20382;-61
2022/05/07 00:34:56;;;;;;;;;;;;;;;13.61;62.01;101772.31;15776458;28;20505;-62
2022/05/07 00:42:31;;;;;;;1999.90;999.90;;;;;;;13.76;62.80;101769.06;15769259;28;19927;-61
2022/05/07 00:57:57;;;;;;;1999.90;999.90;;;;;;;13.62;62.48;101759.94;15761992;28;20101;-60
2022/05/07 01:05:30;;;;;;;1999.90;999.90;;;;;;;13.71;62.29;101746.75;15806303;28;20047;-61
2022/05/07 01:13:08;;;;;;;1999.90;999.90;;;;;;;13.86;62.52;101751.88;15802625;28;20130;-62
2022/05/07 01:20:43;;;;;;;1999.90;999.90;;;;;;;13.92;62.98;101746.91;15806315;28;20044;-62
2022/05/07 01:28:17;;;;;;;1999.90;999.90;;;;;;;14.06;62.54;101746.72;15805022;28;20086;-62
2022/05/07 01:35:49;;;;;;;1999.90;999.90;;;;;;;14.03;61.36;101745.44;15806644;28;20425;-62
2022/05/07 01:43:26;;;;;;;1999.90;999.90;;;;;;;14.06;61.61;101750.38;15790678;28;20044;-63
2022/05/07 01:50:59;;;;;;;1999.90;999.90;;;;;;;14.04;61.31;101738.66;15788401;28;20048;-61
2022/05/07 01:58:38;;;;;;;1999.90;999.90;;;;;;;14.01;61.55;101741.31;15786870;28;20056;-60
2022/05/07 02:06:14;;;;;;;1999.90;999.90;;;;;;;14.06;61.25;101746.72;15804100;28;20036;-59
2022/05/07 02:13:48;;;;;;;1999.90;999.90;;;;;;;14.06;61.35;101732.72;15804389;28;20040;-60
2022/05/07 02:21:21;;;;;;;1999.90;999.90;;;;;;;14.15;61.32;101734.34;15787056;28;20120;-60
2022/05/07 02:28:55;;;;;;;1999.90;999.90;;;;;;;14.27;61.34;101738.44;15803092;28;20480;-60
2022/05/07 02:36:28;;;;;;;1999.90;999.90;;;;;;;14.28;61.74;101735.34;15803016;28;20036;-61
2022/05/07 02:44:04;;;;;;;1999.90;999.90;;;;;;;14.35;61.85;101730.00;15766080;28;20044;-61
2022/05/07 02:51:36;;;;;;;1999.90;999.90;;;;;;;14.03;61.36;101720.16;15792955;28;20509;-61
2022/05/07 02:59:10;;;;;;;1999.90;999.90;;;;;;;13.84;61.76;101709.28;15813999;28;20044;-61
2022/05/07 03:06:43;;;;;;;1999.90;999.90;;;;;;;14.11;61.50;101730.56;15815145;28;20051;-63
2022/05/07 03:14:16;;;;;;;1999.90;999.90;;;;;;;14.17;62.24;101728.38;15782439;28;20066;-64
2022/05/07 03:21:52;;;;;;;1999.90;999.90;;;;;;;14.26;61.39;101732.00;15794389;28;20032;-62
2022/05/07 03:29:31;;;;;;;1999.90;999.90;;;;;;;14.20;62.04;101741.78;15783914;28;20052;-60
2022/05/07 03:37:12;;;;;;;1999.90;999.90;;;;;;;14.29;62.25;101741.78;15780397;28;20044;-62
2022/05/07 03:44:46;;;;;;;;;;;;;;;14.37;62.69;101738.09;15795036;28;20083;-62
2022/05/07 04:00:15;;;;;;;1999.90;999.90;;;;;;;14.24;63.63;101739.13;15783315;28;20065;-62
2022/05/07 04:07:47;;;;;;;1999.90;999.90;;;;;;;13.89;64.11;101747.59;15808105;28;20130;-63
2022/05/07 04:15:24;;;;;;;1999.90;999.90;;;;;;;13.78;64.67;101747.09;15764890;28;20043;-61
2022/05/07 04:23:02;;;;;;;1999.90;999.90;;;;;;;13.88;64.75;101743.13;15807196;28;20070;-62
2022/05/07 04:30:36;;;;;;;1999.90;999.90;;;;;;;14.04;64.40;101741.47;15766327;28;20531;-62
2022/05/07 04:38:08;;;;;;;1999.90;999.90;;;;;;;14.16;63.77;101737.97;15802890;28;20044;-61
2022/05/07 04:45:44;;;;;;;1999.90;999.90;;;;;;;14.55;61.23;101742.53;15807690;28;20135;-60
2022/05/07 04:53:26;;;;;;;1999.90;999.90;;;;;;;14.78;60.25;101745.09;15826641;28;20044;-63
2022/05/07 05:01:06;;;;;;;1999.90;999.90;;;;;;;15.08;59.04;101743.16;15822138;28;20099;-62
2022/05/07 05:08:46;;;;;;;1999.90;999.90;;;;;;;15.66;58.20;101753.56;15827780;28;20036;-62
2022/05/07 05:16:23;;;;;;;1999.90;999.90;;;;;;;16.19;57.43;101746.31;15836917;28;20048;-63
2022/05/07 05:24:00;;;;;;;1999.90;999.90;;;;;;;16.14;56.50;101749.31;15866670;28;20040;-63
2022/05/07 05:31:36;;;;;;;1999.90;999.90;;;;;;;16.56;56.52;101752.03;15854426;28;20041;-62
2022/05/07 05:39:17;;;;;;;1999.90;999.90;;;;;;;17.43;54.09;101754.59;15781908;28;20580;-63
2022/05/07 05:46:53;;;;;;;1999.90;999.90;;;;;;;18.27;51.42;101768.84;15812630;28;20484;-62
2022/05/07 05:54:27;;;;;;;1999.90;999.90;;;;;;;19.17;50.63;101767.22;15812320;28;20054;-62
2022/05/07 06:02:06;;;;;;;1999.90;999.90;;;;;;;19.42;48.54;101777.16;15807818;28;20044;-63
2022/05/07 06:09:48;;;;;;;1999.90;999.90;;;;;;;20.58;48.53;101774.41;15806522;28;20127;-62
2022/05/07 06:17:27;;;;;;;1999.90;999.90;;;;;;;21.54;45.39;101775.25;15761268;28;20050;-62
2022/05/07 06:33:00;;;;;;;1999.90;999.90;;;;;;;22.41;42.74;101784.59;15814760;28;20048;-62
2022/05/07 06:40:41;;;;;;;1999.90;999.90;;;;;;;23.39;40.40;101777.41;15790953;28;20040;-64
2022/05/07 06:48:15;;;;;;;1999.90;999.90;;;;;;;24.22;39.10;101773.81;15812085;28;20059;-63
2022/05/07 06:55:58;;;;;;;1999.90;999.90;;;;;;;25.02;37.77;101779.38;15810582;28;20143;-61
2022/05/07 07:03:32;;;;;;;1999.90;999.90;;;;;;;26.55;36.27;101786.75;15796896;28;20048;-62
2022/05/07 07:11:04;;;;;;;1999.90;999.90;;;;;;;25.17;37.58;101783.84;15812339;28;20094;-62
2022/05/07 07:18:38;;;;;;;1999.90;999.90;;;;;;;27.01;36.38;101790.16;15792739;28;20472;-63
2022/05/07 07:26:10;;;;;;;1999.90;999.90;;;;;;;28.10;33.99;101780.09;15803543;28;20119;-64
2022/05/07 07:33:43;;;;;;;;;;;;;;;27.84;32.63;101790.25;15811772;28;20052;-61
2022/05/07 07:41:17;;;;;;;1999.90;999.90;;;;;;;27.24;33.52;101783.03;15801688;28;19941;-60
2022/05/07 07:48:50;;;;;;;1999.90;999.90;;;;;;;28.27;32.30;101798.34;15797871;28;20040;-62
2022/05/07 07:56:23;;;;;;;1999.90;999.90;;;;;;;28.99;30.78;101781.75;15767435;28;20397;-62
2022/05/07 08:03:56;;;;;;;1999.90;999.90;;;;;;;30.08;29.93;101792.50;15792755;28;20637;-58
2022/05/07 08:11:46;;;;;;;1999.90;999.90;;;;;;;28.68;27.30;101786.72;15808207;28;20040;-60
2022/05/07 08:19:20;;;;;;;1999.90;999.90;;;;;;;28.65;28.44;101781.81;15773160;28;20064;-60
2022/05/07 08:26:52;;;;;;;1999.90;999.90;;;;;;;29.68;25.87;101785.06;15796513;28;20404;-61
2022/05/07 08:34:27;;;;;;;1999.90;999.90;;;;;;;29.53;26.44;101793.97;15806863;28;20044;-63
2022/05/07 08:41:59;;;;;;;1999.90;999.90;;;;;;;28.44;29.46;101785.81;15800858;28;20040;-62
2022/05/07 08:49:36;;;;;;;1999.90;999.90;;;;;;;30.30;29.34;101784.22;15788326;28;20050;-61
2022/05/07 08:57:10;;;;;;;1999.90;999.90;;;;;;;29.67;28.32;101781.38;15797302;28;20040;-62
2022/05/07 09:04:56;;;;;;;1999.90;999.90;;;;;;;28.96;30.40;101771.91;15796909;28;20040;-63
2022/05/07 09:12:29;;;;;;;1999.90;999.90;;;;;;;30.35;26.48;101771.41;15805531;28;20101;-62
2022/05/07 09:20:18;;;;;;;1999.90;999.90;;;;;;;31.42;25.43;101772.53;15803106;28;20044;-63
2022/05/07 09:27:54;;;;;;;1999.90;999.90;;;;;;;32.18;27.72;101786.47;15796645;28;20454;-63
2022/05/07 09:43:20;;;;;;;1999.90;999.90;;;;;;;30.57;26.29;101783.25;15790283;28;20345;-63
2022/05/07 09:51:00;;;;;;;1999.90;999.90;;;;;;;30.62;26.69;101760.47;15750710;28;20052;-62
2022/05/07 09:58:34;;;;;;;1999.90;999.90;;;;;;;29.29;28.97;101760.72;15740801;28;20119;-62
2022/05/07 10:06:23;;;;;;;1999.90;999.90;;;;;;;31.33;26.48;101762.91;15740746;28;20516;-60
2022/05/07 10:13:59;;;;;;;1999.90;999.90;;;;;;;31.00;26.11;101760.81;15769527;28;20036;-62
2022/05/07 10:21:36;;;;;;;1999.90;999.90;;;;;;;30.95;27.79;101752.72;15803277;28;20130;-61
2022/05/07 10:29:21;;;;;;;1999.90;999.90;;;;;;;31.52;26.04;101742.59;15804267;28;20074;-63
2022/05/07 10:37:11;;;;;;;1999.90;999.90;;;;;;;28.40;28.95;101736.25;15803653;28;20032;-62
2022/05/07 10:44:46;;;;;;;1999.90;999.90;;;;;;;27.78;31.07;101729.66;15799969;28;20054;-61
2022/05/07 10:52:32;;;;;;;1999.90;999.90;;;;;;;30.42;31.01;101725.97;15797268;28;20078;-60
2022/05/07 11:00:11;;;;;;;1999.90;999.90;;;;;;;30.87;28.55;101736.88;15773242;28;20085;-60
2022/05/07 11:07:47;;;;;;;1999.90;999.90;;;;;;;31.27;27.29;101728.84;15773068;28;20032;-60
2022/05/07 11:15:24;;;;;;;1999.90;999.90;;;;;;;29.97;28.27;101722.03;15809546;28;20047;-61
2022/05/07 11:23:02;;;;;;;1999.90;999.90;;;;;;;29.32;30.39;101722.47;15808666;28;20040;-61
2022/05/07 11:30:35;;;;;;;1999.90;999.90;;;;;;;30.36;29.88;101719.13;15804874;28;20135;-62
2022/05/07 11:38:15;;;;;;;1999.90;999.90;;;;;;;30.27;28.92;101712.34;15795560;28;20101;-61
2022/05/07 11:45:47;;;;;;;1999.90;999.90;;;;;;;29.62;27.75;101712.88;15767191;28;20040;-62
2022/05/07 11:53:22;;;;;;;1999.90;999.90;;;;;;;29.36;29.70;101708.03;15810400;28;20047;-60
2022/05/07 12:00:56;;;;;;;1999.90;999.90;;;;;;;28.59;31.40;101704.00;15810153;28;20040;-63
2022/05/07 12:08:33;;;;;;;1999.90;999.90;;;;;;;29.08;32.22;101697.88;15785525;28;20036;-62
2022/05/07 12:31:47;;;;;;;1999.90;999.90;;;;;;;31.94;27.06;101692.78;15757482;28;20032;-60
2022/05/07 12:39:21;;;;;;;1999.90;999.90;;;;;;;32.12;27.92;101688.09;15780848;28;20044;-63
2022/05/07 12:46:53;;;;;;;1999.90;999.90;;;;;;;32.56;25.97;101684.66;15787040;28;20132;-62
2022/05/07 12:54:31;;;;;;;1999.90;999.90;;;;;;;29.72;29.73;101680.22;15765669;28;20052;-63
2022/05/07 13:02:06;;;;;;;1999.90;999.90;;;;;;;27.91;31.52;101672.56;15742933;28;20115;-63
2022/05/07 13:09:39;;;;;;;1999.90;999.90;;;;;;;28.40;31.67;101665.31;15766709;28;20402;-63
2022/05/07 13:17:16;;;;;;;1999.90;999.90;;;;;;;32.34;28.01;101668.03;15806155;28;20515;-60
2022/05/07 13:24:56;;;;;;;1999.90;999.90;;;;;;;35.09;23.12;101666.38;15806696;28;20063;-61
2022/05/07 13:32:28;;;;;;;1999.90;999.90;;;;;;;30.08;27.62;101653.56;15803885;28;20048;-62
2022/05/07 13:40:07;;;;;;;1999.90;999.90;;;;;;;28.72;29.60;101647.56;15805823;28;20044;-61
2022/05/07 13:47:41;;;;;;;1999.90;999.90;;;;;;;28.45;30.72;101655.38;15730385;28;20094;-63
2022/05/07 13:55:15;;;;;;;1999.90;999.90;;;;;;;28.17;32.52;101643.09;15731327;28;20052;-64
2022/05/07 14:02:48;;;;;;;1999.90;999.90;;;;;;;28.42;32.40;101639.03;15788423;28;20044;-63
2022/05/07 14:10:23;;;;;;;1999.90;999.90;;;;;;;27.33;31.93;101646.63;15774810;28;20048;-62
2022/05/07 14:17:55;;;;;;;1999.90;999.90;;;;;;;27.17;33.83;101636.97;15763502;28;20060;-62
2022/05/07 14:25:29;;;;;;;1999.90;999.90;;;;;;;27.20;33.25;101624.66;15768233;28;20052;-62
2022/05/07 14:33:05;;;;;;;1999.90;999.90;;;;;;;27.57;33.89;101621.75;15803050;28;20457;-61
2022/05/07 14:40:43;;;;;;;1999.90;999.90;;;;;;;27.82;36.32;101629.25;15774094;28;20048;-62
2022/05/07 14:48:17;;;;;;;1999.90;999.90;;;;;;;26.87;36.22;101627.00;15750964;28;20388;-63
2022/05/07 14:55:52;;;;;;;1999.90;999.90;;;;;;;26.34;38.10;101627.44;15751351;28;20123;-62
2022/05/07 15:03:25;;;;;;;1999.90;999.90;;;;;;;26.71;37.61;101615.31;15749538;28;20048;-63
2022/05/07 15:10:59;;;;;;;1999.90;999.90;;;;;;;26.71;37.25;101621.84;15751112;28;20040;-63
2022/05/07 15:18:35;;;;;;;1999.90;999.90;;;;;;;26.34;36.60;101622.53;15808816;28;20493;-62
2022/05/07 15:26:09;;;;;;;1999.90;999.90;;;;;;;26.58;36.58;101623.63;15811887;28;20044;-61
2022/05/07 15:41:35;;;;;;;1999.90;999.90;;;;;;;26.16;35.91;101633.31;15812830;28;20521;-61
2022/05/07 15:49:10;;;;;;;1999.90;999.90;;;;;;;26.24;36.02;101636.91;15810516;28;20509;-62
2022/05/07 15:56:46;;;;;;;1999.90;999.90;;;;;;;25.93;35.50;101627.28;15810011;28;20044;-63
2022/05/07 16:04:19;;;;;;;1999.90;999.90;;;;;;;25.75;37.05;101638.84;15809028;28;20048;-62
2022/05/07 16:11:52;;;;;;;1999.90;999.90;;;;;;;25.43;36.59;101618.91;15788564;28;20090;-62
2022/05/07 16:19:27;;;;;;;1999.90;999.90;;;;;;;25.17;37.74;101621.06;15746775;28;20032;-61
2022/05/07 16:27:01;;;;;;;1999.90;999.90;;;;;;;24.54;38.08;101619.88;15744511;28;20041;-62
2022/05/07 16:34:36;;;;;;;1999.90;999.90;;;;;;;24.32;38.09;101630.47;15745407;28;20053;-61
2022/05/07 16:42:11;;;;;;;1999.90;999.90;;;;;;;24.18;38.89;101636.94;15750485;28;20040;-63
2022/05/07 16:49:43;;;;;;;1999.90;999.90;;;;;;;24.61;38.56;101639.88;15805190;28;20476;-62
2022/05/07 16:57:18;;;;;;;1999.90;999.90;;;;;;;24.10;38.66;101638.16;15797832;28;20126;-63
2022/05/07 17:04:53;;;;;;;1999.90;999.90;;;;;;;24.14;37.99;101627.56;15770433;28;20073;-62
2022/05/07 17:12:28;;;;;;;1999.90;999.90;;;;;;;24.03;40.70;101637.31;15762265;28;20055;-60
2022/05/07 17:20:07;;;;;;;1999.90;999.90;;;;;;;23.51;43.91;101640.34;15805107;22;20151;-61
2022/05/07 17:27:50;;;;;;;1999.90;999.90;;;;;;;22.86;44.89;101635.50;15789158;28;20047;-59
2022/05/07 17:35:30;;;;;;;1999.90;999.90;;;;;;;22.38;46.03;101658.19;15789534;28;20451;-57
2022/05/07 17:43:04;;;;;;;1999.90;999.90;;;;;;;22.10;47.42;101653.06;15779202;28;20149;-62
2022/05/07 17:50:45;;;;;;;1999.90;999.90;;;;;;;21.88;47.77;101656.81;15752190;28;20040;-58
2022/05/07 17:58:20;;;;;;;1999.90;999.90;;;;;;;21.80;48.74;101664.47;15789377;28;20050;-63
2022/05/07 18:05:58;;;;;;;1999.90;999.90;;;;;;;21.56;49.48;101668.59;15783125;28;20123;-58
2022/05/07 18:13:32;;;;;;;1999.90;999.90;;;;;;;21.33;49.85;101668.69;15770968;28;20051;-60
2022/05/07 18:21:04;;;;;;;1999.90;999.90;;;;;;;21.26;49.88;101671.44;15780026;28;20075;-61
2022/05/07 18:28:41;;;;;;;1999.90;999.90;;;;;;;21.14;50.50;101680.13;15785204;28;20286;-63
2022/05/07 18:44:06;;;;;;;1999.90;999.90;;;;;;;20.54;52.26;101687.66;15779393;28;20490;-62
2022/05/07 18:51:39;;;;;;;1999.90;999.90;;;;;;;20.37;52.34;101678.41;15794349;28;20036;-62
2022/05/07 18:59:13;;;;;;;1999.90;999.90;;;;;;;20.23;53.34;101685.84;15794458;28;20096;-62
2022/05/07 19:06:45;;;;;;;1999.90;999.90;;;;;;;19.85;54.34;101688.34;15781949;28;20321;-62
2022/05/07 19:14:26;;;;;;;1999.90;999.90;;;;;;;19.79;55.12;101691.84;15760154;28;20461;-63
2022/05/07 19:21:58;;;;;;;1999.90;999.90;;;;;;;19.58;55.55;101686.53;15742431;28;20377;-61
2022/05/07 19:29:37;;;;;;;1999.90;999.90;;;;;;;19.34;56.68;101693.25;15777429;28;20089;-62
2022/05/07 19:37:15;;;;;;;1999.90;999.90;;;;;;;18.98;57.47;101700.91;15788521;28;20059;-62
2022/05/07 19:44:49;;;;;;;1999.90;999.90;;;;;;;18.71;58.37;101696.19;15787311;28;20059;-62
2022/05/07 19:52:22;;;;;;;1999.90;999.90;;;;;;;18.37;58.75;101701.31;15791004;28;20032;-61
2022/05/07 19:59:59;;;;;;;1999.90;999.90;;;;;;;18.36;59.10;101719.47;15773185;28;20050;-61
2022/05/07 20:07:48;;;;;;;1999.90;999.90;;;;;;;18.15;60.17;101721.69;15786105;28;20301;-63
2022/05/07 20:15:25;;;;;;;1999.90;999.90;;;;;;;17.96;60.43;101704.59;15752026;28;20059;-64
2022/05/07 20:22:57;;;;;;;1999.90;999.90;;;;;;;17.80;60.59;101719.47;15774541;28;20051;-63
2022/05/07 20:30:37;;;;;;;1999.90;999.90;;;;;;;17.66;61.15;101723.84;15774134;28;20046;-63
2022/05/07 20:38:12;;;;;;;1999.90;999.90;;;;;;;17.55;62.12;101726.34;15787756;28;20131;-62
2022/05/07 20:54:07;;;;;;;1999.90;999.90;;;;;;;17.11;63.02;101731.81;15768724;28;20040;-63
2022/05/07 21:01:42;;;;;;;1999.90;999.90;;;;;;;16.94;63.37;101738.50;15758660;28;20059;-63
2022/05/07 21:09:16;;;;;;;1999.90;999.90;;;;;;;16.92;63.66;101745.69;15761525;28;20491;-62
2022/05/07 21:16:52;;;;;;;1546.28;791.70;;;;;;;16.82;63.72;101748.97;15749678;28;20147;-62
2022/05/07 21:32:12;;;;;;;247.40;225.20;;;;;;;16.62;64.20;101764.75;15763185;28;20095;-63
2022/05/07 21:39:44;;;;;;;1999.90;999.90;;;;;;;16.56;64.32;101764.13;15752241;28;20083;-63
2022/05/07 21:47:18;;;;;;;1999.90;999.90;;;;;;;16.43;64.36;101773.72;15764020;28;20049;-62
2022/05/07 21:55:03;;;;;;;397.77;359.23;;;;;;;16.30;64.74;101781.31;15771824;28;20130;-63
2022/05/07 22:02:50;;;;;;;1579.53;822.30;;;;;;;16.35;64.72;101789.53;15764132;28;20477;-66
2022/05/07 22:10:22;;;;;;;355.35;321.35;;;;;;;16.30;64.86;101786.94;15761955;28;20040;-63
2022/05/07 22:17:56;;;;;;;1999.90;999.90;;;;;;;16.43;64.68;101785.81;15767356;28;20155;-63
2022/05/07 22:25:28;;;;;;;;;;;;;;;16.57;64.51;101796.81;15764914;28;20465;-63
2022/05/07 22:33:02;;;;;;;1576.38;819.05;;;;;;;16.55;64.37;101799.13;15762202;28;20277;-63
2022/05/07 22:40:40;;;;;;;335.30;302.98;;;;;;;16.47;64.63;101805.69;15789174;28;20044;-62
2022/05/07 22:48:14;;;;;;;349.95;315.23;;;;;;;16.44;64.75;101817.63;15791657;28;20064;-62
2022/05/07 22:55:46;;;;;;;359.45;324.80;;;;;;;16.42;65.23;101822.78;15773375;28;20466;-63
2022/05/07 23:03:19;;;;;;;359.33;325.05;;;;;;;16.51;65.13;101823.53;15751430;28;20044;-63
2022/05/07 23:10:52;;;;;;;393.58;354.90;;;;;;;16.72;65.10;101837.59;15778269;28;20072;-63
2022/05/07 23:18:25;;;;;;;372.08;335.98;;;;;;;16.91;64.72;101846.34;15783733;28;20128;-62
2022/05/07 23:25:58;;;;;;;1572.97;815.47;;;;;;;16.90;64.70;101841.88;15748837;28;20044;-60
2022/05/07 23:33:31;;;;;;;293.40;265.42;;;;;;;17.02;64.40;101843.91;15780970;28;20501;-61
2022/05/07 23:41:05;;;;;;;1043.20;529.65;;;;;;;17.18;63.65;101853.31;15793423;28;20056;-61
2022/05/07 23:48:38;;;;;;;1088.95;572.88;;;;;;;17.06;64.35;101844.84;15760931;28;20202;-63
2022/05/07 23:56:11;;;;;;;336.60;302.00;;;;;;;16.98;64.83;101849.41;15758944;28;20114;-61
